Time;durP1;ratioP1;P1;durP2;ratioP2;P2;SDS_P1;SDS_P2;PMS_P1;PMS_P2;Temp;Humidity;BMP_temperature;BMP_pressure;BME280_temperature;BME280_humidity;BME280_pressure;Samples;Min_cycle;Max_cycle;Signal;HPM_P1;HPM_P2
2022/03/19 00:00:24;;;;;;;7.60;5.40;;;11.60;51.70;;;;;;5050596;28;20093;-49
2022/03/19 00:02:51;;;;;;;10.00;6.00;;;11.60;51.80;;;;;;5065519;28;20040;-49
2022/03/19 00:05:18;;;;;;;8.30;6.10;;;11.60;51.80;;;;;;5042285;28;20045;-48
2022/03/19 00:07:45;;;;;;;6.38;5.72;;;11.60;51.90;;;;;;5035341;28;20064;-53
2022/03/19 00:10:16;;;;;;;9.15;6.57;;;11.50;51.80;;;;;;5045436;28;20135;-49
2022/03/19 00:12:43;;;;;;;11.07;6.75;;;11.50;52.00;;;;;;5055587;28;20086;-50
2022/03/19 00:15:10;;;;;;;8.77;6.40;;;11.50;52.10;;;;;;5066681;28;20111;-48
2022/03/19 00:17:40;;;;;;;8.65;6.05;;;11.40;52.10;;;;;;5047216;28;20039;-49
2022/03/19 00:20:11;;;;;;;11.40;6.30;;;11.40;52.30;;;;;;5064975;28;20043;-49
2022/03/19 00:22:38;;;;;;;9.90;6.68;;;11.40;52.30;;;;;;5068146;28;20043;-51
2022/03/19 00:25:08;;;;;;;10.32;6.25;;;11.40;52.40;;;;;;5064513;28;20558;-50
2022/03/19 00:27:37;;;;;;;7.13;5.70;;;11.30;52.50;;;;;;5048019;28;20044;-49
2022/03/19 00:30:06;;;;;;;8.60;5.70;;;11.30;52.70;;;;;;5063229;28;20040;-49
2022/03/19 00:32:34;;;;;;;9.45;6.40;;;11.30;52.60;;;;;;5068264;28;20068;-50
2022/03/19 00:35:01;;;;;;;9.05;6.28;;;11.20;52.70;;;;;;5062899;28;20053;-50
2022/03/19 00:37:28;;;;;;;6.93;5.47;;;11.20;52.80;;;;;;5049355;28;20037;-49
2022/03/19 00:39:58;;;;;;;8.85;5.55;;;11.20;52.80;;;;;;5048095;28;20106;-51
2022/03/19 00:42:25;;;;;;;8.32;5.95;;;11.10;52.90;;;;;;5042586;28;20038;-50
2022/03/19 00:44:52;;;;;;;8.30;6.18;;;11.10;53.00;;;;;;5045306;28;20102;-48
2022/03/19 00:47:18;;;;;;;7.32;5.53;;;11.10;53.10;;;;;;5053315;28;20062;-49
2022/03/19 00:49:45;;;;;;;9.75;6.88;;;11.10;53.10;;;;;;5063697;28;20454;-49
2022/03/19 00:52:15;;;;;;;7.07;5.47;;;11.00;53.20;;;;;;5028076;28;20049;-48
2022/03/19 00:54:41;;;;;;;9.40;6.15;;;11.00;53.30;;;;;;5048707;28;20087;-48
2022/03/19 00:57:08;;;;;;;9.93;6.32;;;11.00;53.30;;;;;;5068521;28;20048;-51
2022/03/19 00:59:35;;;;;;;8.98;5.30;;;11.00;53.50;;;;;;5067827;28;20098;-48
2022/03/19 01:02:02;;;;;;;9.68;6.38;;;11.00;53.50;;;;;;5058649;28;20123;-48
2022/03/19 01:04:29;;;;;;;6.78;5.53;;;10.90;53.50;;;;;;5051675;28;20471;-52
2022/03/19 01:06:55;;;;;;;9.55;6.47;;;10.90;53.50;;;;;;5047728;28;20029;-49
2022/03/19 01:09:22;;;;;;;9.52;6.13;;;10.90;53.60;;;;;;5047111;28;20083;-48
2022/03/19 01:11:51;;;;;;;8.27;6.03;;;10.90;53.70;;;;;;5048438;28;20080;-51
2022/03/19 01:14:18;;;;;;;7.03;5.57;;;10.80;53.80;;;;;;5045095;28;20033;-49
2022/03/19 01:16:45;;;;;;;7.57;6.03;;;10.80;53.80;;;;;;5053880;28;20087;-49
2022/03/19 01:19:12;;;;;;;7.13;5.97;;;10.80;53.80;;;;;;5047050;28;20045;-48
2022/03/19 01:21:39;;;;;;;9.18;6.03;;;10.80;54.00;;;;;;5044800;28;20159;-49
2022/03/19 01:24:06;;;;;;;8.45;6.60;;;10.80;54.00;;;;;;5051742;28;20048;-49
2022/03/19 01:26:37;;;;;;;8.30;6.38;;;10.70;54.10;;;;;;5059845;28;20036;-48
2022/03/19 01:29:06;;;;;;;9.63;6.25;;;10.70;54.20;;;;;;5068276;28;20049;-47
2022/03/19 01:31:33;;;;;;;8.27;6.05;;;10.70;54.20;;;;;;5056161;28;20093;-48
2022/03/19 01:34:00;;;;;;;6.78;6.10;;;10.70;54.30;;;;;;5046142;28;20044;-49
2022/03/19 01:36:29;;;;;;;12.20;6.95;;;10.70;54.40;;;;;;5061456;28;20037;-49
2022/03/19 01:38:56;;;;;;;9.43;6.22;;;10.70;54.40;;;;;;5052718;28;20570;-48
2022/03/19 01:41:23;;;;;;;8.60;5.80;;;10.60;54.40;;;;;;5046506;28;20109;-49
2022/03/19 01:43:51;;;;;;;9.20;6.10;;;10.60;54.40;;;;;;5048809;28;20040;-49
2022/03/19 01:46:18;;;;;;;10.40;6.68;;;10.50;54.40;;;;;;5070936;28;20056;-48
2022/03/19 01:48:45;;;;;;;8.98;6.30;;;10.50;54.50;;;;;;5071325;28;20044;-48
2022/03/19 01:51:14;;;;;;;9.20;6.38;;;10.50;54.50;;;;;;5056002;28;20040;-48
2022/03/19 01:53:41;;;;;;;8.48;6.45;;;10.40;54.40;;;;;;5049078;28;20040;-49
2022/03/19 01:56:08;;;;;;;7.40;6.07;;;10.40;54.80;;;;;;5067586;28;20049;-48
2022/03/19 01:58:51;;;;;;;9.45;7.05;;;10.30;54.30;;;;;;5070974;28;20037;-50
2022/03/19 02:01:18;;;;;;;8.18;6.00;;;10.30;54.50;;;;;;5064730;28;20082;-50
2022/03/19 02:03:48;;;;;;;9.90;6.53;;;10.20;54.60;;;;;;5058998;28;20396;-48
2022/03/19 02:06:14;;;;;;;8.50;6.57;;;10.20;54.90;;;;;;5070047;28;20040;-48
2022/03/19 02:08:44;;;;;;;8.63;7.18;;;10.10;55.00;;;;;;5051793;28;20091;-47
2022/03/19 02:11:11;;;;;;;8.82;7.22;;;10.10;55.80;;;;;;5056713;28;20048;-48
2022/03/19 02:13:40;;;;;;;8.65;6.45;;;10.00;55.30;;;;;;5064651;28;20036;-51
2022/03/19 02:16:08;;;;;;;11.18;6.68;;;10.00;55.70;;;;;;5060908;28;20036;-49
2022/03/19 02:18:34;;;;;;;7.88;6.00;;;10.00;55.60;;;;;;5044893;28;20034;-47
2022/03/19 02:21:04;;;;;;;9.45;6.72;;;9.90;55.70;;;;;;5050073;28;20049;-47
2022/03/19 02:26:17;;;;;;;11.18;6.80;;;9.90;55.90;;;;;;5071027;28;20075;-50
2022/03/19 02:28:43;;;;;;;12.25;7.43;;;9.90;55.90;;;;;;5067585;28;20068;-49
2022/03/19 02:31:10;;;;;;;8.73;6.50;;;9.90;56.00;;;;;;5060044;28;20439;-48
2022/03/19 02:33:39;;;;;;;9.52;6.65;;;9.90;56.10;;;;;;5070071;28;20094;-52
2022/03/19 02:36:08;;;;;;;10.20;6.75;;;9.90;56.10;;;;;;5071896;28;20039;-48
2022/03/19 02:38:35;;;;;;;9.38;6.65;;;9.90;56.20;;;;;;5054655;28;20064;-47
2022/03/19 02:41:07;;;;;;;7.03;6.13;;;9.90;56.40;;;;;;5059078;28;20037;-49
2022/03/19 02:43:33;;;;;;;9.55;7.18;;;9.80;57.20;;;;;;5070040;28;20049;-49
2022/03/19 02:46:00;;;;;;;9.55;6.80;;;9.80;56.30;;;;;;5068699;28;20411;-47
2022/03/19 02:48:27;;;;;;;8.90;7.03;;;9.80;56.50;;;;;;5056609;28;20447;-48
2022/03/19 02:50:54;;;;;;;8.75;6.28;;;9.80;56.50;;;;;;5067165;28;20049;-50
2022/03/19 02:53:22;;;;;;;8.32;6.78;;;9.90;56.70;;;;;;5069645;28;20500;-48
2022/03/19 02:55:51;;;;;;;10.10;7.30;;;9.80;56.70;;;;;;5053357;28;20561;-51
2022/03/19 02:58:17;;;;;;;9.40;7.70;;;9.80;56.70;;;;;;5055827;28;20060;-49
2022/03/19 03:00:45;;;;;;;9.45;7.10;;;9.80;56.70;;;;;;5051684;28;20036;-49
2022/03/19 03:03:12;;;;;;;11.20;7.13;;;9.80;56.80;;;;;;5065808;28;20698;-48
2022/03/19 03:05:41;;;;;;;9.48;7.05;;;9.80;56.80;;;;;;5069534;28;20058;-51
2022/03/19 03:08:10;;;;;;;10.73;7.20;;;9.90;56.90;;;;;;5050505;28;20513;-48
2022/03/19 03:10:39;;;;;;;10.90;7.80;;;9.80;56.80;;;;;;5054986;28;20039;-49
2022/03/19 03:13:06;;;;;;;10.52;7.10;;;9.80;56.90;;;;;;5054730;28;20522;-50
2022/03/19 03:15:33;;;;;;;11.40;7.53;;;9.80;57.00;;;;;;5060839;28;20492;-49
2022/03/19 03:18:06;;;;;;;9.23;7.80;;;9.80;57.00;;;;;;5059124;28;20044;-47
2022/03/19 03:20:34;;;;;;;8.55;6.88;;;9.70;57.00;;;;;;5070169;28;20036;-48
2022/03/19 03:23:05;;;;;;;11.13;7.13;;;9.70;57.00;;;;;;5069472;28;20714;-48
2022/03/19 03:25:33;;;;;;;10.73;7.45;;;9.70;57.20;;;;;;5061354;28;20056;-47
2022/03/19 03:28:03;;;;;;;9.85;6.78;;;9.70;57.10;;;;;;5059972;28;20052;-48
2022/03/19 03:30:31;;;;;;;11.18;7.20;;;9.70;57.10;;;;;;5069778;28;20036;-48
2022/03/19 03:32:58;;;;;;;11.27;8.02;;;9.70;57.10;;;;;;5063494;28;20033;-47
2022/03/19 03:35:27;;;;;;;9.52;7.05;;;9.60;57.00;;;;;;5043380;28;20065;-50
2022/03/19 03:37:57;;;;;;;11.73;8.02;;;9.60;57.10;;;;;;5054208;28;20120;-48
2022/03/19 03:40:24;;;;;;;10.98;7.15;;;9.60;57.10;;;;;;5065983;28;20569;-48
2022/03/19 03:42:51;;;;;;;11.90;7.75;;;9.60;57.20;;;;;;5049498;28;20048;-50
2022/03/19 03:45:19;;;;;;;9.50;7.25;;;9.60;57.30;;;;;;5044790;28;20067;-50
2022/03/19 03:47:45;;;;;;;10.30;7.20;;;9.50;57.40;;;;;;5057872;28;20039;-49
2022/03/19 03:50:15;;;;;;;8.32;6.80;;;9.50;57.40;;;;;;5069610;28;20446;-47
2022/03/19 03:52:50;;;;;;;9.65;6.32;;;9.50;57.50;;;;;;5064601;28;20051;-48
2022/03/19 03:55:17;;;;;;;8.75;7.32;;;9.50;57.60;;;;;;5049904;28;20094;-51
2022/03/19 03:57:44;;;;;;;11.50;7.22;;;9.50;57.70;;;;;;5063448;28;20041;-48
2022/03/19 04:00:16;;;;;;;7.80;5.82;;;9.50;57.80;;;;;;5069816;28;20045;-49
2022/03/19 04:02:45;;;;;;;9.43;6.97;;;9.40;57.90;;;;;;5054847;28;20038;-49
2022/03/19 04:05:15;;;;;;;12.32;8.15;;;9.50;57.80;;;;;;5069173;28;20115;-47
2022/03/19 04:07:42;;;;;;;10.57;7.68;;;9.40;57.80;;;;;;5054136;28;20040;-48
2022/03/19 04:10:09;;;;;;;9.95;6.85;;;9.50;57.90;;;;;;5049359;28;20068;-49
2022/03/19 04:12:36;;;;;;;10.82;6.75;;;9.40;57.90;;;;;;5043193;28;20040;-50
2022/03/19 04:15:08;;;;;;;10.77;7.15;;;9.40;58.00;;;;;;5061060;28;20118;-48
2022/03/19 04:17:36;;;;;;;10.60;6.93;;;9.40;58.00;;;;;;5069716;28;20409;-48
2022/03/19 04:20:06;;;;;;;8.70;6.40;;;9.40;58.00;;;;;;5061721;28;20075;-48
2022/03/19 04:22:40;;;;;;;8.50;6.82;;;9.30;57.90;;;;;;5058474;28;20041;-48
2022/03/19 04:25:11;;;;;;;10.00;7.38;;;9.30;58.20;;;;;;5068725;28;20049;-48
2022/03/19 04:27:41;;;;;;;10.48;6.97;;;9.30;58.10;;;;;;5068511;28;20044;-48
2022/03/19 04:30:12;;;;;;;9.63;7.07;;;9.30;57.90;;;;;;5055023;28;20050;-49
2022/03/19 04:32:43;;;;;;;;;;;9.20;57.70;;;;;;5054696;28;20041;-50
2022/03/19 04:38:06;;;;;;;9.85;7.25;;;9.20;57.20;;;;;;5083113;22;20099;-45
2022/03/19 04:40:39;;;;;;;13.73;7.95;;;9.10;57.80;;;;;;5049877;28;20041;-45
2022/03/19 04:43:11;;;;;;;12.52;7.53;;;9.10;57.80;;;;;;5048361;28;20041;-44
2022/03/19 04:45:55;;;;;;;9.55;7.60;;;9.00;57.80;;;;;;5049820;28;20036;-45
2022/03/19 04:48:22;;;;;;;9.93;7.20;;;9.00;58.50;;;;;;5050278;28;20572;-45
2022/03/19 04:50:52;;;;;;;9.48;7.53;;;9.00;58.10;;;;;;5047367;28;20072;-45
2022/03/19 04:53:24;;;;;;;10.02;7.35;;;8.90;58.20;;;;;;5058411;28;20044;-44
2022/03/19 04:55:50;;;;;;;10.00;6.68;;;8.90;58.50;;;;;;5068553;28;20098;-44
2022/03/19 04:58:20;;;;;;;11.32;7.18;;;8.90;58.40;;;;;;5068403;28;20048;-44
2022/03/19 05:00:49;;;;;;;11.45;7.53;;;8.80;58.50;;;;;;5057790;28;20036;-44
2022/03/19 05:03:16;;;;;;;16.75;8.05;;;8.80;58.60;;;;;;5059875;28;20041;-44
2022/03/19 05:05:46;;;;;;;11.05;7.28;;;8.80;58.70;;;;;;5069310;28;20123;-44
2022/03/19 05:08:13;;;;;;;9.65;7.68;;;8.80;58.80;;;;;;5045055;28;20041;-44
2022/03/19 05:13:30;;;;;;;9.18;8.05;;;8.70;59.00;;;;;;5052566;28;20079;-45
2022/03/19 05:15:57;;;;;;;12.50;7.63;;;8.70;59.30;;;;;;5066168;28;20097;-46
2022/03/19 05:18:25;;;;;;;10.50;8.35;;;8.70;59.10;;;;;;5068279;28;20051;-46
2022/03/19 05:20:52;;;;;;;9.50;7.78;;;8.70;59.20;;;;;;5054015;28;20656;-45
2022/03/19 05:23:23;;;;;;;8.23;6.93;;;8.70;59.30;;;;;;5071410;28;20040;-45
2022/03/19 05:25:58;;;;;;;12.10;8.43;;;8.70;59.40;;;;;;5071813;28;20578;-47
2022/03/19 05:28:27;;;;;;;13.07;8.25;;;8.80;59.60;;;;;;5059454;28;20605;-45
2022/03/19 05:31:04;;;;;;;11.35;8.18;;;8.70;59.50;;;;;;5072135;28;20097;-45
2022/03/19 05:36:22;;;;;;;11.63;7.65;;;8.70;59.60;;;;;;5054988;28;20060;-47
2022/03/19 05:38:53;;;;;;;11.95;8.65;;;8.70;59.40;;;;;;5062974;28;20098;-45
2022/03/19 05:41:27;;;;;;;11.03;8.07;;;8.70;59.60;;;;;;5061232;28;20463;-45
2022/03/19 05:43:58;;;;;;;11.20;8.15;;;8.70;59.50;;;;;;5046666;28;20107;-45
2022/03/19 05:46:28;;;;;;;14.05;8.43;;;8.70;59.70;;;;;;5061774;28;20046;-45
2022/03/19 05:48:55;;;;;;;10.85;8.50;;;8.70;59.60;;;;;;5065317;28;20090;-46
2022/03/19 05:51:21;;;;;;;14.38;8.32;;;8.70;59.80;;;;;;5073380;28;20474;-47
2022/03/19 05:53:53;;;;;;;8.07;5.43;;;8.70;59.80;;;;;;5067391;28;20497;-46
2022/03/19 05:56:24;;;;;;;10.07;8.65;;;8.70;59.80;;;;;;5060988;28;20060;-45
2022/03/19 05:58:52;;;;;;;10.50;8.55;;;8.70;60.10;;;;;;5072092;28;20111;-45
2022/03/19 06:01:25;;;;;;;11.70;7.55;;;8.70;59.90;;;;;;5071998;28;20048;-47
2022/03/19 06:03:54;;;;;;;10.60;7.85;;;8.70;60.00;;;;;;5051907;28;20037;-46
2022/03/19 06:06:23;;;;;;;13.52;8.23;;;8.70;60.10;;;;;;5051397;28;20518;-45
2022/03/19 06:08:50;;;;;;;10.07;7.20;;;8.70;60.20;;;;;;5067990;28;20067;-45
2022/03/19 06:11:19;;;;;;;12.20;8.10;;;8.70;60.20;;;;;;5058498;28;20075;-44
2022/03/19 06:13:46;;;;;;;10.73;7.55;;;8.70;60.30;;;;;;5056202;28;20500;-48
2022/03/19 06:16:15;;;;;;;11.48;8.43;;;8.70;60.30;;;;;;5071989;28;20043;-45
2022/03/19 06:18:46;;;;;;;14.20;8.43;;;8.70;60.20;;;;;;5071531;28;20447;-45
2022/03/19 06:21:13;;;;;;;13.73;8.95;;;8.70;60.30;;;;;;5066891;28;20075;-46
2022/03/19 06:23:39;;;;;;;12.75;8.25;;;8.70;60.40;;;;;;5054202;28;20068;-46
2022/03/19 06:26:10;;;;;;;10.95;8.20;;;8.70;60.40;;;;;;5061565;28;20067;-45
2022/03/19 06:28:39;;;;;;;12.95;8.73;;;8.80;60.40;;;;;;5071270;28;20040;-45
2022/03/19 06:31:06;;;;;;;13.32;8.80;;;8.80;60.50;;;;;;5071902;28;20102;-45
2022/03/19 06:33:34;;;;;;;10.48;8.13;;;8.80;60.40;;;;;;5060045;28;20817;-45
2022/03/19 06:38:49;;;;;;;12.77;8.75;;;8.80;60.50;;;;;;5056782;28;20048;-44
2022/03/19 06:41:15;;;;;;;13.35;8.32;;;8.80;60.40;;;;;;5052585;28;20036;-45
2022/03/19 06:43:46;;;;;;;13.50;8.60;;;8.90;60.50;;;;;;5053882;28;20033;-46
2022/03/19 06:46:13;;;;;;;11.80;8.65;;;8.90;60.70;;;;;;5071536;28;20052;-47
2022/03/19 06:48:40;;;;;;;13.27;8.73;;;8.90;60.60;;;;;;5071258;28;20048;-47
2022/03/19 06:51:08;;;;;;;12.32;8.73;;;8.90;60.60;;;;;;5060228;28;20690;-45
2022/03/19 06:53:37;;;;;;;13.82;8.55;;;8.90;60.60;;;;;;5066557;28;20046;-45
2022/03/19 06:56:07;;;;;;;10.52;8.70;;;8.90;60.70;;;;;;5070971;28;20043;-45
2022/03/19 06:58:36;;;;;;;13.90;8.98;;;8.90;60.60;;;;;;5058302;28;20079;-46
2022/03/19 07:01:15;;;;;;;10.60;7.90;;;9.00;60.70;;;;;;5057302;28;20439;-45
2022/03/19 07:03:44;;;;;;;13.30;9.63;;;9.00;60.90;;;;;;5061828;28;20037;-46
2022/03/19 07:06:16;;;;;;;12.85;8.63;;;9.00;60.80;;;;;;5070279;28;20526;-45
2022/03/19 07:09:07;;;;;;;12.45;8.77;;;9.00;61.00;;;;;;5048884;28;20049;-46
2022/03/19 07:11:36;;;;;;;9.88;8.75;;;9.00;60.70;;;;;;5049194;28;20103;-45
2022/03/19 07:14:05;;;;;;;12.35;9.02;;;9.10;60.90;;;;;;5057379;28;20047;-44
2022/03/19 07:16:39;;;;;;;11.20;8.45;;;9.10;60.90;;;;;;5062408;28;20599;-47
2022/03/19 07:19:12;;;;;;;12.82;9.75;;;9.20;61.00;;;;;;5046922;28;20048;-48
2022/03/19 07:21:39;;;;;;;11.50;8.63;;;9.10;61.00;;;;;;5050263;28;20099;-48
2022/03/19 07:24:06;;;;;;;9.70;7.65;;;9.20;61.10;;;;;;5067880;28;20048;-50
2022/03/19 07:26:33;;;;;;;11.32;8.52;;;9.20;61.10;;;;;;5057865;28;20041;-47
2022/03/19 07:29:01;;;;;;;11.27;8.55;;;9.20;61.10;;;;;;5051664;28;20053;-47
2022/03/19 07:31:30;;;;;;;10.65;9.10;;;9.30;61.20;;;;;;5069522;28;20500;-47
2022/03/19 07:33:57;;;;;;;12.43;8.15;;;9.30;61.20;;;;;;5069813;28;20105;-47
2022/03/19 07:36:24;;;;;;;10.05;7.97;;;9.40;61.20;;;;;;5034513;28;21585;-47
2022/03/19 07:38:51;;;;;;;11.15;7.80;;;9.50;61.20;;;;;;5023821;28;20070;-48
2022/03/19 07:44:04;;;;;;;11.73;9.02;;;9.50;61.20;;;;;;5038368;28;20048;-47
2022/03/19 07:46:31;;;;;;;13.93;8.80;;;9.60;61.10;;;;;;5044960;28;20056;-45
2022/03/19 07:48:57;;;;;;;10.85;8.65;;;9.60;61.10;;;;;;5041583;28;20744;-47
2022/03/19 07:51:24;;;;;;;14.07;8.98;;;9.70;61.10;;;;;;5043747;28;20049;-48
2022/03/19 07:53:51;;;;;;;12.43;9.43;;;9.70;61.10;;;;;;5037198;28;20090;-47
2022/03/19 07:56:18;;;;;;;13.30;8.85;;;9.80;61.10;;;;;;5047535;28;20395;-48
2022/03/19 07:58:50;;;;;;;11.80;8.25;;;9.80;61.00;;;;;;5050643;28;20047;-48
2022/03/19 08:01:18;;;;;;;;;;;9.90;60.90;;;;;;5061856;28;20045;-47
2022/03/19 08:03:45;;;;;;;9.25;7.32;;;10.00;60.90;;;;;;5034500;28;19931;-47
2022/03/19 08:06:13;;;;;;;10.15;7.00;;;10.00;60.30;;;;;;5047141;28;20524;-48
2022/03/19 08:08:43;;;;;;;10.35;7.60;;;10.10;60.50;;;;;;5043135;28;20052;-49
2022/03/19 08:11:10;;;;;;;11.07;7.03;;;10.10;60.40;;;;;;5050199;28;20044;-47
2022/03/19 08:13:38;;;;;;;8.45;6.85;;;10.10;60.40;;;;;;5041292;28;20047;-47
2022/03/19 08:16:05;;;;;;;7.30;6.20;;;10.20;60.40;;;;;;5051507;28;20040;-48
2022/03/19 08:18:32;;;;;;;7.70;6.30;;;10.20;60.20;;;;;;5044801;28;20040;-46
2022/03/19 08:20:59;;;;;;;10.50;6.20;;;10.30;60.00;;;;;;5044915;28;20493;-47
2022/03/19 08:23:26;;;;;;;9.02;6.07;;;10.30;59.70;;;;;;5038324;28;20583;-48
2022/03/19 08:25:53;;;;;;;9.75;6.45;;;10.40;59.60;;;;;;5042992;28;20416;-48
2022/03/19 08:28:20;;;;;;;9.85;6.38;;;10.50;59.40;;;;;;5034317;28;20060;-48
2022/03/19 08:30:47;;;;;;;6.25;5.20;;;10.50;59.30;;;;;;5046896;28;20381;-48
2022/03/19 08:33:13;;;;;;;9.60;6.13;;;10.60;59.10;;;;;;5036913;28;20049;-47
2022/03/19 08:35:40;;;;;;;9.77;5.95;;;10.60;59.00;;;;;;5041974;28;20370;-48
2022/03/19 08:40:57;;;;;;;9.20;6.82;;;10.70;58.90;;;;;;5029573;28;20053;-47
2022/03/19 08:43:24;;;;;;;7.95;6.72;;;10.80;58.90;;;;;;5035225;28;20054;-46
2022/03/19 08:45:51;;;;;;;8.48;6.43;;;10.80;58.70;;;;;;5046873;28;20068;-49
2022/03/19 08:48:18;;;;;;;9.07;6.97;;;10.90;58.60;;;;;;5048867;28;20044;-46
2022/03/19 08:50:46;;;;;;;8.68;6.72;;;10.90;58.50;;;;;;5039294;28;20068;-48
2022/03/19 08:53:13;;;;;;;8.38;5.75;;;11.00;58.40;;;;;;5033382;28;20048;-48
2022/03/19 08:55:41;;;;;;;8.38;7.05;;;11.10;58.30;;;;;;5051234;28;20157;-46
2022/03/19 08:58:08;;;;;;;10.30;6.07;;;11.10;58.20;;;;;;5048680;28;20083;-48
2022/03/19 09:00:35;;;;;;;13.55;7.07;;;11.10;58.30;;;;;;5044814;28;20057;-46
2022/03/19 09:03:02;;;;;;;8.25;6.45;;;11.20;58.20;;;;;;5038718;28;20049;-47
2022/03/19 09:05:32;;;;;;;8.27;6.63;;;11.20;58.10;;;;;;5053743;28;20116;-49
2022/03/19 09:07:58;;;;;;;9.00;5.95;;;11.30;58.00;;;;;;5050486;28;20048;-49
2022/03/19 09:10:25;;;;;;;12.93;6.95;;;11.30;57.90;;;;;;5043848;28;20079;-48
2022/03/19 09:12:52;;;;;;;9.43;7.55;;;11.40;57.90;;;;;;5039782;28;20722;-48
2022/03/19 09:15:19;;;;;;;8.82;6.10;;;11.40;57.70;;;;;;5050440;28;20032;-48
2022/03/19 09:17:45;;;;;;;9.13;6.25;;;11.40;57.60;;;;;;5046856;28;20036;-48
2022/03/19 09:20:12;;;;;;;9.00;5.43;;;11.50;57.40;;;;;;5050510;28;20036;-49
2022/03/19 09:22:39;;;;;;;8.50;6.05;;;11.50;57.30;;;;;;5043323;28;20049;-47
2022/03/19 09:25:08;;;;;;;8.18;6.20;;;11.60;57.30;;;;;;5053097;28;20048;-48
2022/03/19 09:27:39;;;;;;;8.32;6.13;;;11.60;57.30;;;;;;5043637;28;20037;-48
2022/03/19 09:30:08;;;;;;;8.23;5.70;;;11.60;57.10;;;;;;5049959;28;20057;-48
2022/03/19 09:32:35;;;;;;;8.77;6.22;;;11.70;57.00;;;;;;5043598;28;20099;-48
2022/03/19 09:35:03;;;;;;;8.52;6.88;;;11.80;56.90;;;;;;5039126;28;20663;-48
2022/03/19 09:37:32;;;;;;;10.45;6.25;;;11.80;56.80;;;;;;5049071;28;20063;-48
2022/03/19 09:39:59;;;;;;;12.85;7.05;;;11.80;56.60;;;;;;5044872;28;20041;-49
2022/03/19 09:42:28;;;;;;;10.35;6.05;;;11.90;56.40;;;;;;5053903;28;20098;-48
2022/03/19 09:44:55;;;;;;;9.52;5.20;;;12.00;56.40;;;;;;5043296;28;20045;-47
2022/03/19 09:47:25;;;;;;;10.25;6.20;;;12.00;56.20;;;;;;5040786;28;20052;-48
2022/03/19 09:49:55;;;;;;;6.60;5.32;;;12.10;55.90;;;;;;5044494;28;20053;-48
2022/03/19 09:52:27;;;;;;;8.27;5.45;;;12.10;56.10;;;;;;5046294;28;20095;-49
2022/03/19 09:54:58;;;;;;;8.80;6.20;;;12.20;56.10;;;;;;5050681;28;20122;-46
2022/03/19 09:57:25;;;;;;;6.75;4.82;;;12.20;55.80;;;;;;5043584;28;20041;-48
2022/03/19 09:59:52;;;;;;;6.43;5.35;;;12.30;55.80;;;;;;5037682;28;20618;-49
2022/03/19 10:02:19;;;;;;;7.70;5.65;;;12.30;55.00;;;;;;5058277;28;20099;-52
2022/03/19 10:04:46;;;;;;;6.82;4.82;;;12.40;55.10;;;;;;5048158;28;20068;-49
2022/03/19 10:09:58;;;;;;;9.10;5.03;;;12.50;54.80;;;;;;5045723;28;20048;-48
2022/03/19 10:12:28;;;;;;;5.63;5.03;;;12.50;54.50;;;;;;5039028;28;20052;-48
2022/03/19 10:14:56;;;;;;;7.50;4.80;;;12.60;54.10;;;;;;5049088;28;20037;-49
2022/03/19 10:17:31;;;;;;;8.05;4.65;;;12.60;53.80;;;;;;5047395;28;20051;-48
2022/03/19 10:20:05;;;;;;;5.32;3.75;;;12.60;53.70;;;;;;5041210;28;20052;-47
2022/03/19 10:22:37;;;;;;;8.18;4.35;;;12.70;53.50;;;;;;5038563;28;20389;-48
2022/03/19 10:25:07;;;;;;;7.32;5.53;;;12.70;53.50;;;;;;5044920;28;20045;-48
2022/03/19 10:27:39;;;;;;;6.20;4.43;;;12.80;53.50;;;;;;5042410;28;20563;-48
2022/03/19 10:30:09;;;;;;;5.05;3.85;;;12.90;53.10;;;;;;5045943;28;20072;-48
2022/03/19 10:32:40;;;;;;;11.03;3.80;;;12.90;52.80;;;;;;5041959;28;20065;-48
2022/03/19 10:35:23;;;;;;;7.72;4.47;;;13.00;52.40;;;;;;5045153;28;20126;-47
2022/03/19 10:37:50;;;;;;;4.88;3.65;;;13.10;51.30;;;;;;5037526;28;20052;-48
2022/03/19 10:40:17;;;;;;;7.05;3.60;;;13.20;51.60;;;;;;5047325;28;20037;-48
2022/03/19 10:42:43;;;;;;;5.43;3.42;;;13.20;51.10;;;;;;5040430;28;20079;-50
2022/03/19 10:45:22;;;;;;;5.25;3.08;;;13.20;50.70;;;;;;5044130;28;20045;-49
2022/03/19 10:47:49;;;;;;;5.03;3.47;;;13.30;50.10;;;;;;5041653;28;20414;-48
2022/03/19 10:50:21;;;;;;;5.68;3.15;;;13.40;50.10;;;;;;5037314;28;20056;-47
2022/03/19 10:52:49;;;;;;;4.60;3.00;;;13.40;49.40;;;;;;5037849;28;20096;-50
2022/03/19 10:55:17;;;;;;;4.43;3.45;;;13.60;49.60;;;;;;5050074;28;20037;-49
2022/03/19 10:57:46;;;;;;;9.43;3.20;;;13.50;49.20;;;;;;5041426;28;20033;-48
2022/03/19 11:00:14;;;;;;;5.07;3.20;;;13.60;48.30;;;;;;5046949;28;20033;-48
2022/03/19 11:02:45;;;;;;;12.82;3.10;;;13.70;48.10;;;;;;5041635;28;20056;-49
2022/03/19 11:05:17;;;;;;;5.00;2.77;;;13.70;47.20;;;;;;5047972;28;20044;-49
2022/03/19 11:07:45;;;;;;;3.50;2.60;;;13.80;46.90;;;;;;5042161;28;20322;-48
2022/03/19 11:10:12;;;;;;;3.55;2.55;;;13.80;46.50;;;;;;5049513;28;20731;-51
2022/03/19 11:12:42;;;;;;;4.18;2.85;;;13.90;46.30;;;;;;5041562;28;20053;-48
2022/03/19 11:15:10;;;;;;;5.68;2.60;;;14.00;45.70;;;;;;5049452;28;20049;-49
2022/03/19 11:17:40;;;;;;;3.75;2.50;;;14.00;45.70;;;;;;5041492;28;20037;-48
2022/03/19 11:20:12;;;;;;;3.85;2.75;;;14.10;45.00;;;;;;5050503;28;20064;-48
2022/03/19 11:22:52;;;;;;;2.72;2.35;;;14.20;45.10;;;;;;5040961;28;20065;-49
2022/03/19 11:25:32;;;;;;;8.13;3.53;;;14.20;44.30;;;;;;5043889;28;20041;-48
2022/03/19 11:28:10;;;;;;;4.88;3.15;;;14.30;43.70;;;;;;5039224;28;20037;-47
2022/03/19 11:30:42;;;;;;;3.53;2.72;;;14.30;43.70;;;;;;5045076;28;20049;-49
2022/03/19 11:33:20;;;;;;;4.97;2.83;;;14.30;44.60;;;;;;5040688;28;20500;-48
2022/03/19 11:36:08;;;;;;;5.75;3.10;;;14.40;43.50;;;;;;5050226;28;20072;-49
2022/03/19 11:38:49;;;;;;;5.15;2.80;;;14.50;44.10;;;;;;5038865;28;20067;-47
2022/03/19 11:41:28;;;;;;;5.00;2.63;;;14.50;43.70;;;;;;5047326;28;20078;-48
2022/03/19 11:44:24;;;;;;;4.35;2.65;;;14.60;43.10;;;;;;5037188;28;20106;-49
2022/03/19 11:46:54;;;;;;;3.42;2.88;;;14.60;42.60;;;;;;5052045;28;20028;-48
2022/03/19 11:50:02;;;;;;;5.28;3.78;;;14.70;43.00;;;;;;5031286;28;20045;-48
2022/03/19 11:52:29;;;;;;;6.90;2.80;;;14.70;41.90;;;;;;5045031;28;20048;-48
2022/03/19 11:55:03;;;;;;;4.78;2.67;;;14.80;42.70;;;;;;5035914;28;20505;-48
2022/03/19 11:57:55;;;;;;;5.63;3.17;;;14.80;41.90;;;;;;5027265;28;20056;-48
2022/03/19 12:00:24;;;;;;;;;;;14.80;41.40;;;;;;5046403;28;20041;-48
2022/03/19 12:03:09;;;;;;;2.67;1.95;;;14.90;42.80;;;;;;5040608;28;19921;-48
2022/03/19 12:05:56;;;;;;;4.15;3.10;;;14.90;41.10;;;;;;5050213;28;20048;-48
2022/03/19 12:08:26;;;;;;;4.07;2.13;;;15.00;40.40;;;;;;5031187;28;20045;-49
2022/03/19 12:10:57;;;;;;;2.45;2.22;;;15.00;40.80;;;;;;5031150;28;20107;-48
2022/03/19 12:13:27;;;;;;;4.43;2.28;;;15.00;39.80;;;;;;5038533;28;20094;-48
2022/03/19 12:15:59;;;;;;;4.43;2.00;;;15.10;39.70;;;;;;5052147;28;20111;-50
2022/03/19 12:18:44;;;;;;;4.10;1.70;;;15.10;39.80;;;;;;5033852;28;20039;-50
2022/03/19 12:21:11;;;;;;;2.65;1.95;;;15.10;37.70;;;;;;5046878;28;20049;-48
2022/03/19 12:24:02;;;;;;;2.58;1.70;;;15.20;38.30;;;;;;5034212;28;20033;-49
2022/03/19 12:26:38;;;;;;;3.60;1.80;;;15.20;36.80;;;;;;5055617;28;20044;-48
2022/03/19 12:29:13;;;;;;;3.53;1.60;;;15.20;36.80;;;;;;5030292;28;20128;-49
2022/03/19 12:31:42;;;;;;;1.83;1.38;;;15.20;36.90;;;;;;5049539;28;20471;-47
2022/03/19 12:34:22;;;;;;;3.25;1.40;;;15.30;37.30;;;;;;5032909;28;20501;-49
2022/03/19 12:36:50;;;;;;;5.40;1.50;;;15.30;36.10;;;;;;5056496;28;20033;-49
2022/03/19 12:39:17;;;;;;;2.50;1.40;;;15.30;37.30;;;;;;5035895;28;20091;-48
2022/03/19 12:41:44;;;;;;;1.50;1.10;;;15.40;36.50;;;;;;5058397;28;20036;-49
2022/03/19 12:44:33;;;;;;;2.15;1.63;;;15.40;36.30;;;;;;5038762;28;20060;-48
2022/03/19 12:47:04;;;;;;;1.42;0.80;;;15.40;35.80;;;;;;5045150;28;20044;-48
2022/03/19 12:49:32;;;;;;;2.15;0.90;;;15.40;35.10;;;;;;5039362;28;20557;-49
2022/03/19 12:52:10;;;;;;;2.97;1.17;;;15.50;35.00;;;;;;5049077;28;20041;-48
2022/03/19 12:54:44;;;;;;;2.60;0.90;;;15.50;33.70;;;;;;5043386;28;20037;-48
2022/03/19 12:57:14;;;;;;;1.85;0.80;;;15.60;33.80;;;;;;5039763;28;20080;-48
2022/03/19 12:59:54;;;;;;;2.60;2.40;;;15.60;34.40;;;;;;5033982;28;20108;-49
2022/03/19 13:02:25;;;;;;;1.83;1.73;;;15.70;34.00;;;;;;5046506;28;20049;-48
2022/03/19 13:04:53;;;;;;;2.38;1.45;;;15.70;34.40;;;;;;5040429;28;20037;-50
2022/03/19 13:07:22;;;;;;;10.65;1.98;;;15.70;33.60;;;;;;5045110;28;20132;-49
2022/03/19 13:09:48;;;;;;;2.38;1.05;;;15.70;33.40;;;;;;5034964;28;20045;-50
2022/03/19 13:12:17;;;;;;;1.70;1.60;;;15.70;33.20;;;;;;5054539;28;20857;-47
2022/03/19 13:14:52;;;;;;;2.53;1.50;;;15.80;32.50;;;;;;5036473;28;20099;-47
2022/03/19 13:17:19;;;;;;;2.40;1.67;;;15.90;31.20;;;;;;5041800;28;20099;-48
2022/03/19 13:19:46;;;;;;;2.15;1.25;;;15.90;32.70;;;;;;5035062;28;20524;-49
2022/03/19 13:22:19;;;;;;;31.88;26.27;;;15.90;32.60;;;;;;5048240;28;20033;-50